createdAt,value
2023-10-04T00:00:21.264Z,55.8
2023-10-04T00:01:35.926Z,55.8
2023-10-04T00:02:57.613Z,55.9
2023-10-04T00:04:20.761Z,55.9
2023-10-04T00:05:26.867Z,55.9
2023-10-04T00:06:51.594Z,55.8
2023-10-04T00:08:15.578Z,55.7
2023-10-04T00:09:36.895Z,56.2
2023-10-04T00:11:02.817Z,56.2
2023-10-04T00:12:25.140Z,55.9
2023-10-04T00:13:49.248Z,55.4
2023-10-04T00:15:09.576Z,56.1
2023-10-04T00:16:34.735Z,56.2
2023-10-04T00:17:58.745Z,55.9
2023-10-04T00:19:22.815Z,55.6
2023-10-04T00:20:35.994Z,55.1
2023-10-04T00:22:00.473Z,55
2023-10-04T00:23:17.923Z,54.7
2023-10-04T00:24:23.269Z,54.6
2023-10-04T00:25:44.884Z,54.5
2023-10-04T00:27:01.805Z,54.7
2023-10-04T00:28:22.644Z,54.6
2023-10-04T00:29:42.844Z,54.5
2023-10-04T00:31:03.358Z,54.4
2023-10-04T00:32:27.216Z,54.2
2023-10-04T00:33:39.845Z,53.9
2023-10-04T00:35:06.856Z,53.9
2023-10-04T00:36:32.160Z,53.7
2023-10-04T00:37:57.252Z,53.5
2023-10-04T00:39:21.202Z,53.5
2023-10-04T00:40:45.264Z,53.7
2023-10-04T00:42:09.441Z,53.8
2023-10-04T00:43:33.470Z,53.9
2023-10-04T00:45:00.672Z,54
2023-10-04T00:46:24.903Z,54.2
2023-10-04T00:47:48.920Z,54.3
2023-10-04T00:49:05.701Z,54
2023-10-04T00:50:26.827Z,54
2023-10-04T00:51:51.563Z,53.4
2023-10-04T00:53:15.675Z,53.8
2023-10-04T00:54:39.964Z,53.8
2023-10-04T00:56:00.043Z,53.3
2023-10-04T00:57:05.752Z,53.2
2023-10-04T00:58:26.176Z,53
2023-10-04T00:59:38.691Z,52.9
2023-10-04T01:01:02.834Z,52.9
2023-10-04T01:02:19.263Z,53.1
2023-10-04T01:03:45.816Z,53.5
2023-10-04T01:05:11.495Z,53.6
2023-10-04T01:06:35.543Z,53.5
2023-10-04T01:07:55.792Z,53.4
2023-10-04T01:09:12.229Z,53
2023-10-04T01:10:32.514Z,53
2023-10-04T01:11:52.739Z,52.7
2023-10-04T01:13:16.911Z,52.8
2023-10-04T01:14:29.866Z,52.7
2023-10-04T01:15:51.666Z,52.7
2023-10-04T01:17:15.743Z,52.8
2023-10-04T01:18:40.166Z,52.9
2023-10-04T01:20:04.095Z,53
2023-10-04T01:21:28.122Z,53
2023-10-04T01:22:52.128Z,52.7
2023-10-04T01:24:01.374Z,52.1
2023-10-04T01:25:26.763Z,51.7
2023-10-04T01:26:47.221Z,51.7
2023-10-04T01:28:11.512Z,51.8
2023-10-04T01:29:24.792Z,51.7
2023-10-04T01:30:42.259Z,52
2023-10-04T01:31:50.984Z,52.1
2023-10-04T01:36:36.402Z,52.2
2023-10-04T01:38:00.431Z,52.1
2023-10-04T01:39:20.826Z,52.5
2023-10-04T01:40:44.936Z,52.5
2023-10-04T01:42:08.974Z,52.5
2023-10-04T01:43:26.615Z,52.5
2023-10-04T01:44:42.723Z,52.5
2023-10-04T01:46:01.318Z,52.3
2023-10-04T01:47:30.504Z,52.3
2023-10-04T01:48:58.511Z,52.1
2023-10-04T01:50:24.761Z,52.1
2023-10-04T01:51:49.583Z,52.1
2023-10-04T01:53:14.079Z,52.2
2023-10-04T01:54:38.910Z,52.5
2023-10-04T01:56:02.925Z,52.6
2023-10-04T01:57:27.175Z,52.2
2023-10-04T01:58:47.314Z,51.5
2023-10-04T02:00:08.066Z,51.5
2023-10-04T02:01:32.706Z,51.6
2023-10-04T02:02:57.635Z,51.5
2023-10-04T02:04:21.896Z,51.4
2023-10-04T02:05:45.925Z,51.6
2023-10-04T02:06:55.205Z,51.6
2023-10-04T02:08:12.662Z,50.9
2023-10-04T02:09:39.187Z,51.4
2023-10-04T02:11:03.321Z,51.2
2023-10-04T02:12:28.755Z,51.1
2023-10-04T02:13:42.821Z,51.3
2023-10-04T02:15:07.165Z,51.7
2023-10-04T02:16:12.972Z,50.9
2023-10-04T02:17:38.484Z,50.7
2023-10-04T02:18:55.391Z,49.7
2023-10-04T02:20:19.497Z,49.7
2023-10-04T02:21:43.691Z,50
2023-10-04T02:23:07.810Z,50.2
2023-10-04T02:24:31.830Z,50.3
2023-10-04T02:25:45.487Z,50
2023-10-04T02:27:09.502Z,50.1
2023-10-04T02:28:33.909Z,50.2
2023-10-04T02:29:58.653Z,50.5
2023-10-04T02:31:19.049Z,50.7
2023-10-04T02:32:43.384Z,50.4
2023-10-04T02:34:00.166Z,51.1
2023-10-04T02:35:20.677Z,51.6
2023-10-04T02:36:44.761Z,51.8
2023-10-04T02:37:49.733Z,52.2
2023-10-04T02:39:10.010Z,53.1
2023-10-04T02:40:34.368Z,53.4
2023-10-04T02:41:58.138Z,53.6
2023-10-04T02:43:22.438Z,53.7
2023-10-04T02:44:42.484Z,53.2
2023-10-04T02:45:51.660Z,53.2
2023-10-04T02:47:13.654Z,53.4
2023-10-04T02:48:41.612Z,53.3
2023-10-04T02:50:07.669Z,53.2
2023-10-04T02:51:29.026Z,53.1
2023-10-04T02:52:56.012Z,53.1
2023-10-04T02:54:20.121Z,53.1
2023-10-04T02:55:33.407Z,53.1
2023-10-04T02:56:43.093Z,53
2023-10-04T02:58:07.450Z,53.2
2023-10-04T02:59:17.104Z,52.9
2023-10-04T03:00:41.764Z,52.8
2023-10-04T03:02:02.796Z,52.9
2023-10-04T03:03:08.214Z,53.2
2023-10-04T03:04:33.154Z,53.1
2023-10-04T03:05:58.751Z,53.5
2023-10-04T03:07:27.444Z,53.1
2023-10-04T03:08:51.795Z,52.9
2023-10-04T03:10:16.020Z,52.7
2023-10-04T03:11:29.198Z,52
2023-10-04T03:12:53.661Z,51.7
2023-10-04T03:14:17.727Z,51.3
2023-10-04T03:15:41.827Z,50.8
2023-10-04T03:17:02.295Z,50.2
2023-10-04T03:18:30.730Z,50.1
2023-10-04T03:19:44.476Z,50
2023-10-04T03:21:08.786Z,49.8
2023-10-04T03:22:30.048Z,49.7
2023-10-04T03:23:56.199Z,49.6
2023-10-04T03:25:22.414Z,49.6
2023-10-04T03:26:31.276Z,49.7
2023-10-04T03:27:56.079Z,49.7
2023-10-04T03:29:20.162Z,49.9
2023-10-04T03:30:44.350Z,49.8
2023-10-04T03:32:09.498Z,49.9
2023-10-04T03:33:35.137Z,49.9
2023-10-04T03:34:59.570Z,49.5
2023-10-04T03:36:24.123Z,49.4
2023-10-04T03:37:45.053Z,49.8
2023-10-04T03:39:09.064Z,50.3
2023-10-04T03:40:26.474Z,50.7
2023-10-04T03:41:50.553Z,51.1
2023-10-04T03:43:00.231Z,51.7
2023-10-04T03:44:26.765Z,51.5
2023-10-04T03:45:50.425Z,51.8
2023-10-04T03:47:03.145Z,52.3
2023-10-04T03:48:25.300Z,52.4
2023-10-04T03:49:42.357Z,52.9
2023-10-04T03:51:10.098Z,52.9
2023-10-04T03:52:25.709Z,53.2
2023-10-04T03:53:50.272Z,53.3
2023-10-04T03:55:14.479Z,53.4
2023-10-04T03:56:34.857Z,53.5
2023-10-04T03:57:54.887Z,53.3
2023-10-04T03:59:19.047Z,53.3
2023-10-04T04:00:39.474Z,53.2
2023-10-04T04:02:00.116Z,53.2
2023-10-04T04:03:13.576Z,53.4
2023-10-04T04:04:30.944Z,53.3
2023-10-04T04:05:54.046Z,53.3
2023-10-04T04:07:12.556Z,53
2023-10-04T04:08:37.682Z,53
2023-10-04T04:09:57.579Z,53.5
2023-10-04T04:11:17.896Z,53.4
2023-10-04T04:12:38.160Z,53.4
2023-10-04T04:13:58.674Z,53.7
2023-10-04T04:15:24.521Z,53.7
2023-10-04T04:16:38.044Z,52.7
2023-10-04T04:17:58.754Z,52.4
2023-10-04T04:19:25.906Z,52.7
2023-10-04T04:20:35.114Z,52.7
2023-10-04T04:22:01.426Z,52.4
2023-10-04T04:23:27.288Z,52.2
2023-10-04T04:24:51.488Z,51.5
2023-10-04T04:26:15.859Z,51.1
2023-10-04T04:27:41.469Z,50.9
2023-10-04T04:29:06.236Z,50.6
2023-10-04T04:30:32.035Z,50.3
2023-10-04T04:31:49.921Z,50.3
2023-10-04T04:33:06.771Z,50.6
2023-10-04T04:34:15.710Z,50.9
2023-10-04T04:35:36.614Z,50.9
2023-10-04T04:36:56.992Z,50.8
2023-10-04T04:38:17.117Z,50.9
2023-10-04T04:39:37.395Z,51
2023-10-04T04:40:50.083Z,51.4
2023-10-04T04:42:10.359Z,51.4
2023-10-04T04:43:27.310Z,52.3
2023-10-04T04:44:44.039Z,52
2023-10-04T04:46:04.338Z,51.5
2023-10-04T04:47:27.215Z,51.6
2023-10-04T04:48:48.387Z,51.6
2023-10-04T04:50:09.527Z,51.5
2023-10-04T04:51:22.031Z,51.4
2023-10-04T04:52:31.011Z,51.3
2023-10-04T04:53:44.256Z,51.6
2023-10-04T04:55:13.370Z,51.7
2023-10-04T04:56:29.719Z,51.7
2023-10-04T04:57:50.001Z,51.4
2023-10-04T04:59:03.335Z,51.2
2023-10-04T05:00:24.369Z,51.3
2023-10-04T05:01:33.641Z,51
2023-10-04T05:02:50.285Z,50.8
2023-10-04T05:03:52.323Z,50.2
2023-10-04T05:04:57.054Z,50.2
2023-10-04T05:05:58.899Z,50.1
2023-10-04T05:07:03.989Z,49.8
2023-10-04T05:08:06.112Z,49.9
2023-10-04T05:09:07.908Z,49
2023-10-04T05:10:12.618Z,49
2023-10-04T05:11:13.593Z,49
2023-10-04T05:12:18.323Z,49.3
2023-10-04T05:13:19.486Z,48.4
2023-10-04T05:14:24.407Z,49.1
2023-10-04T05:15:25.225Z,48.9
2023-10-04T05:16:33.978Z,48.5
2023-10-04T05:17:34.980Z,48.3
2023-10-04T05:18:43.707Z,48.5
2023-10-04T05:19:48.914Z,48.7
2023-10-04T05:20:54.605Z,48.7
2023-10-04T05:21:59.197Z,48.3
2023-10-04T05:23:09.418Z,48.1
2023-10-04T05:24:22.856Z,48.1
2023-10-04T05:25:28.837Z,48.4
2023-10-04T05:26:43.337Z,47.8
2023-10-04T05:27:54.699Z,47.9
2023-10-04T05:29:07.748Z,47.8
2023-10-04T05:30:14.415Z,48
2023-10-04T05:31:26.878Z,48
2023-10-04T05:32:30.505Z,47.5
2023-10-04T05:33:39.934Z,47.6
2023-10-04T05:35:01.175Z,47.7
2023-10-04T05:36:10.861Z,47.7
2023-10-04T05:37:19.286Z,47.9
2023-10-04T05:38:20.853Z,48.2
2023-10-04T05:39:32.118Z,47.6
2023-10-04T05:40:36.783Z,47.6
2023-10-04T05:41:43.131Z,46.7
2023-10-04T05:42:48.708Z,47.1
2023-10-04T05:43:53.367Z,47.2
2023-10-04T05:45:02.417Z,47.3
2023-10-04T05:46:10.831Z,47.4
2023-10-04T05:47:19.663Z,47.1
2023-10-04T05:48:21.406Z,46.9
2023-10-04T05:49:29.195Z,47.1
2023-10-04T05:50:34.323Z,47.1
2023-10-04T05:51:41.189Z,47.5
2023-10-04T05:52:49.769Z,48
2023-10-04T05:53:58.641Z,48
2023-10-04T05:55:07.245Z,48.5
2023-10-04T05:56:13.074Z,48.6
2023-10-04T05:57:22.056Z,48.8
2023-10-04T05:58:27.884Z,48.4
2023-10-04T05:59:37.433Z,48.4
2023-10-04T06:00:39.182Z,48.2
2023-10-04T06:01:47.989Z,48.6
2023-10-04T06:02:52.951Z,48.1
2023-10-04T06:03:54.427Z,48.2
2023-10-04T06:05:12.235Z,48.2
2023-10-04T06:06:18.956Z,48.2
2023-10-04T06:07:28.393Z,48.1
2023-10-04T06:08:52.912Z,47.8
2023-10-04T06:10:17.595Z,47.8
2023-10-04T06:11:34.444Z,47.8
2023-10-04T06:12:55.124Z,48.1
2023-10-04T06:13:57.295Z,48.1
2023-10-04T06:15:10.374Z,47.7
2023-10-04T06:16:15.445Z,47.7
2023-10-04T06:17:31.892Z,47.8
2023-10-04T06:18:37.523Z,47.1
2023-10-04T06:19:42.778Z,47.5
2023-10-04T06:20:55.824Z,47.5
2023-10-04T06:21:56.837Z,47.6
2023-10-04T06:23:02.051Z,47.7
2023-10-04T06:24:15.163Z,47.9
2023-10-04T06:25:20.297Z,48.2
2023-10-04T06:26:23.443Z,48
2023-10-04T06:27:36.573Z,47.9
2023-10-04T06:29:08.214Z,48
2023-10-04T06:30:17.802Z,47.8
2023-10-04T06:31:21.670Z,48
2023-10-04T06:32:34.496Z,47.6
2023-10-04T06:33:55.032Z,48.4
2023-10-04T06:34:58.512Z,47.1
2023-10-04T06:36:16.385Z,46.4
2023-10-04T06:37:33.449Z,46
2023-10-04T06:38:38.572Z,46.5
2023-10-04T06:39:39.407Z,46.8
2023-10-04T06:40:40.592Z,46.1
2023-10-04T06:41:49.411Z,46.3
2023-10-04T06:42:51.271Z,46.2
2023-10-04T06:43:57.469Z,46.1
2023-10-04T06:45:02.831Z,46.1
2023-10-04T06:46:15.658Z,46.1
2023-10-04T06:47:37.094Z,45.3
2023-10-04T06:48:58.065Z,45.8
2023-10-04T06:50:15.413Z,46
2023-10-04T06:51:30.328Z,45.6
2023-10-04T06:52:43.728Z,45.6
2023-10-04T06:54:06.780Z,45.3
2023-10-04T06:55:24.594Z,45
2023-10-04T06:56:49.675Z,44.7
2023-10-04T06:58:14.589Z,45.1
2023-10-04T06:59:41.777Z,45.4
2023-10-04T07:00:56.899Z,45.4
2023-10-04T07:02:09.324Z,43.7
2023-10-04T07:03:34.494Z,43.3
2023-10-04T07:04:59.726Z,43.9
2023-10-04T07:06:23.819Z,44.5
2023-10-04T07:07:45.157Z,44.5
2023-10-04T07:09:09.249Z,44.7
2023-10-04T07:10:31.227Z,44.9
2023-10-04T07:11:46.563Z,44.1
2023-10-04T07:13:12.969Z,44.5
2023-10-04T07:14:39.817Z,44.1
2023-10-04T07:16:03.976Z,44.2
2023-10-04T07:17:21.558Z,43.6
2023-10-04T07:18:44.832Z,43.8
2023-10-04T07:19:56.792Z,44.1
2023-10-04T07:21:21.919Z,43.4
2023-10-04T07:22:46.008Z,43.4
2023-10-04T07:24:10.291Z,43.3
2023-10-04T07:25:24.828Z,44
2023-10-04T07:26:50.779Z,43.7
2023-10-04T07:27:59.882Z,43.8
2023-10-04T07:29:20.895Z,42.6
2023-10-04T07:30:33.811Z,42
2023-10-04T07:31:55.069Z,42.1
2023-10-04T07:33:08.310Z,42.5
2023-10-04T07:34:17.546Z,42.6
2023-10-04T07:35:34.731Z,43.2
2023-10-04T07:36:59.485Z,42.1
2023-10-04T07:38:11.932Z,42
2023-10-04T07:39:24.638Z,42
2023-10-04T07:40:34.194Z,41
2023-10-04T07:41:59.210Z,41.5
2023-10-04T07:43:16.244Z,42.8
2023-10-04T07:44:37.364Z,42.7
2023-10-04T07:46:02.195Z,42.6
2023-10-04T07:47:26.298Z,42.4
2023-10-04T07:48:50.652Z,41.4
2023-10-04T07:50:15.449Z,40.1
2023-10-04T07:51:31.924Z,40.8
2023-10-04T07:52:44.462Z,39.7
2023-10-04T07:53:57.617Z,39.3
2023-10-04T07:55:14.319Z,39.3
2023-10-04T07:56:34.437Z,40.2
2023-10-04T07:58:00.529Z,40.6
2023-10-04T07:59:18.615Z,40.8
2023-10-04T08:00:43.438Z,40.7
2023-10-04T08:02:03.029Z,40.5
2023-10-04T08:03:16.337Z,40.4
2023-10-04T08:04:42.214Z,39.3
2023-10-04T08:06:02.782Z,38.9
2023-10-04T08:07:19.762Z,39.5
2023-10-04T08:08:42.045Z,38.7
2023-10-04T08:09:59.123Z,39
2023-10-04T08:11:23.805Z,38.4
2023-10-04T08:12:48.992Z,39.4
2023-10-04T08:14:01.209Z,37.5
2023-10-04T08:15:15.825Z,35.6
2023-10-04T08:16:29.386Z,36.4
2023-10-04T08:17:50.821Z,37
2023-10-04T08:19:07.718Z,37.7
2023-10-04T08:20:34.947Z,37.9
2023-10-04T08:21:51.174Z,37.6
2023-10-04T08:22:56.656Z,38.8
2023-10-04T08:24:21.582Z,38.6
2023-10-04T08:25:42.554Z,38.3
2023-10-04T08:27:03.343Z,37.6
2023-10-04T08:28:17.017Z,37.4
2023-10-04T08:29:38.231Z,36.7
2023-10-04T08:30:57.355Z,36.9
2023-10-04T08:32:13.812Z,36.5
2023-10-04T08:33:41.332Z,37.1
2023-10-04T08:35:02.706Z,38.2
2023-10-04T08:36:32.357Z,37.5
2023-10-04T08:37:57.787Z,36.9
2023-10-04T08:39:19.063Z,36.1
2023-10-04T08:40:40.440Z,36.2
2023-10-04T08:42:04.077Z,36.6
2023-10-04T08:43:41.407Z,36.5
2023-10-04T08:45:05.586Z,36
2023-10-04T08:46:22.235Z,36.5
2023-10-04T08:47:38.691Z,36.3
2023-10-04T08:48:52.469Z,35.8
2023-10-04T08:50:05.995Z,35.9
2023-10-04T08:51:24.154Z,37.1
2023-10-04T08:52:44.650Z,36.9
2023-10-04T08:54:09.456Z,37.2
2023-10-04T08:55:32.777Z,36.8
2023-10-04T08:56:54.410Z,36.7
2023-10-04T08:58:19.172Z,36.8
2023-10-04T08:59:37.499Z,37.1
2023-10-04T09:00:57.731Z,36.9
2023-10-04T09:02:25.611Z,37.1
2023-10-04T09:03:42.125Z,37.3
2023-10-04T09:04:55.279Z,37.1
2023-10-04T09:06:11.982Z,37.4
2023-10-04T09:07:47.200Z,37
2023-10-04T09:09:17.859Z,37.3
2023-10-04T09:10:41.677Z,37.9
2023-10-04T09:11:55.878Z,38
2023-10-04T09:13:18.106Z,37.4
2023-10-04T09:14:31.412Z,37.1
2023-10-04T09:15:51.952Z,37.2
2023-10-04T09:17:04.909Z,37.6
2023-10-04T09:18:29.944Z,37.5
2023-10-04T09:19:42.230Z,37.4
2023-10-04T09:20:55.151Z,37.9
2023-10-04T09:22:20.271Z,38.4
2023-10-04T09:23:41.909Z,38.5
2023-10-04T09:25:03.882Z,37.6
2023-10-04T09:26:24.988Z,36.5
2023-10-04T09:27:49.970Z,35.8
2023-10-04T09:29:15.202Z,36.2
2023-10-04T09:30:40.909Z,36.3
2023-10-04T09:32:16.293Z,36.5
2023-10-04T09:33:43.583Z,35.9
2023-10-04T09:35:04.317Z,35.8
2023-10-04T09:36:21.550Z,33.6
2023-10-04T09:37:35.684Z,33.3
2023-10-04T09:38:57.825Z,32.8
2023-10-04T09:40:21.517Z,33.2
2023-10-04T09:41:43.330Z,34.6
2023-10-04T09:43:08.593Z,34.7
2023-10-04T09:44:28.654Z,35.4
2023-10-04T09:45:51.641Z,33.3
2023-10-04T09:47:12.410Z,33.6
2023-10-04T09:48:43.524Z,33.7
2023-10-04T09:50:06.210Z,34.7
2023-10-04T09:51:38.072Z,34.3
2023-10-04T09:53:02.725Z,34.7
2023-10-04T09:54:23.030Z,35.2
2023-10-04T09:55:47.144Z,35.4
2023-10-04T09:57:12.106Z,35.1
2023-10-04T09:58:35.773Z,33.5
2023-10-04T10:00:03.692Z,33
2023-10-04T10:01:29.854Z,33.1
2023-10-04T10:02:42.436Z,32.5
2023-10-04T10:04:06.960Z,32.7
2023-10-04T10:05:30.458Z,33.9
2023-10-04T10:06:44.626Z,34.1
2023-10-04T10:08:09.235Z,34.1
2023-10-04T10:09:35.230Z,34.1
2023-10-04T10:10:55.648Z,34.1
2023-10-04T10:12:00.464Z,35.2
2023-10-04T10:13:38.714Z,35.1
2023-10-04T10:15:05.819Z,35.2
2023-10-04T10:16:29.861Z,35
2023-10-04T10:17:54.979Z,34.8
2023-10-04T10:19:19.728Z,33.5
2023-10-04T10:20:44.211Z,34.8
2023-10-04T10:22:00.787Z,34.9
2023-10-04T10:23:25.585Z,34.5
2023-10-04T10:24:50.524Z,34.1
2023-10-04T10:26:15.406Z,33.9
2023-10-04T10:27:28.018Z,34.2
2023-10-04T10:28:52.816Z,34.4
2023-10-04T10:30:21.907Z,34.3
2023-10-04T10:31:45.852Z,33.8
2023-10-04T10:33:12.603Z,34
2023-10-04T10:34:27.737Z,34
2023-10-04T10:35:44.340Z,33.6
2023-10-04T10:37:05.665Z,34.7
2023-10-04T10:38:11.119Z,35.5
2023-10-04T10:39:37.594Z,36
2023-10-04T10:40:58.864Z,35.2
2023-10-04T10:42:08.067Z,35.2
2023-10-04T10:43:33.905Z,34.4
2023-10-04T10:44:43.548Z,34.3
2023-10-04T10:46:08.583Z,33.2
2023-10-04T10:47:29.792Z,31.7
2023-10-04T10:48:54.573Z,32.1
2023-10-04T10:50:19.482Z,32.3
2023-10-04T10:51:44.001Z,32.9
2023-10-04T10:53:11.048Z,32.4
2023-10-04T10:54:32.503Z,31.7
2023-10-04T10:55:57.061Z,32.3
2023-10-04T10:57:21.569Z,32.6
2023-10-04T10:58:47.647Z,32.6
2023-10-04T11:00:12.543Z,33.6
2023-10-04T11:01:36.927Z,33.5
2023-10-04T11:03:02.598Z,32.4
2023-10-04T11:04:26.860Z,32.7
2023-10-04T11:05:50.966Z,32.8
2023-10-04T11:07:05.545Z,32.9
2023-10-04T11:08:26.145Z,32.9
2023-10-04T11:09:43.251Z,31.3
2023-10-04T11:10:47.118Z,31.8
2023-10-04T11:11:56.081Z,31.9
2023-10-04T11:13:20.066Z,31.9
2023-10-04T11:14:44.463Z,32.6
2023-10-04T11:16:10.786Z,33.4
2023-10-04T11:17:19.347Z,34
2023-10-04T11:18:44.868Z,33.1
2023-10-04T11:20:07.435Z,34.1
2023-10-04T11:21:35.542Z,34.4
2023-10-04T11:22:56.162Z,34.7
2023-10-04T11:24:22.024Z,34.5
2023-10-04T11:25:46.256Z,34.4
2023-10-04T11:27:14.091Z,34
2023-10-04T11:28:39.194Z,34.2
2023-10-04T11:29:48.086Z,34.3
2023-10-04T11:31:12.241Z,33.7
2023-10-04T11:32:36.457Z,31.9
2023-10-04T11:34:01.930Z,31.9
2023-10-04T11:35:07.670Z,32.1
2023-10-04T11:36:36.385Z,31.3
2023-10-04T11:37:52.821Z,31.3
2023-10-04T11:39:16.745Z,31.4
2023-10-04T11:40:22.039Z,32
2023-10-04T11:41:35.423Z,31.3
2023-10-04T11:42:56.528Z,31.7
2023-10-04T11:44:01.332Z,30.7
2023-10-04T11:45:25.632Z,30.8
2023-10-04T11:46:38.141Z,30.5
2023-10-04T11:48:05.490Z,29.9
2023-10-04T11:49:30.102Z,30.6
2023-10-04T11:50:54.385Z,30.8
2023-10-04T11:52:15.045Z,30.7
2023-10-04T11:53:36.634Z,29.5
2023-10-04T11:54:53.542Z,28.9
2023-10-04T11:56:18.492Z,29
2023-10-04T11:57:46.822Z,30.6
2023-10-04T11:59:07.754Z,31.2
2023-10-04T12:00:28.443Z,29.9
2023-10-04T12:01:49.667Z,29.6
2023-10-04T12:03:16.399Z,30.2
2023-10-04T12:04:39.477Z,30
2023-10-04T12:06:04.447Z,29.2
2023-10-04T12:07:28.833Z,29.1
2023-10-04T12:08:35.031Z,29.6
2023-10-04T12:10:00.115Z,29.8
2023-10-04T12:11:22.827Z,29.5
2023-10-04T12:12:47.110Z,29.1
2023-10-04T12:14:03.664Z,28.7
2023-10-04T12:15:25.614Z,28
2023-10-04T12:16:49.908Z,28.3
2023-10-04T12:18:10.570Z,30
2023-10-04T12:19:35.830Z,31.1
2023-10-04T12:21:00.414Z,31.4
2023-10-04T12:22:24.434Z,29.9
2023-10-04T12:23:48.656Z,29.2
2023-10-04T12:25:14.153Z,28.9
2023-10-04T12:26:39.041Z,28.3
2023-10-04T12:28:04.246Z,29
2023-10-04T12:29:29.062Z,28.4
2023-10-04T12:30:50.165Z,27.1
2023-10-04T12:32:07.467Z,27.8
2023-10-04T12:33:37.337Z,28.1
2023-10-04T12:35:03.498Z,28.6
2023-10-04T12:36:24.377Z,28.5
2023-10-04T12:37:48.587Z,28.5
2023-10-04T12:39:12.653Z,28.8
2023-10-04T12:40:26.053Z,29.9
2023-10-04T12:41:38.695Z,30.1
2023-10-04T12:42:59.254Z,29.6
2023-10-04T12:44:25.058Z,29.9
2023-10-04T12:45:41.717Z,29.1
2023-10-04T12:47:06.456Z,28.1
2023-10-04T12:48:11.439Z,27.9
2023-10-04T12:49:35.365Z,27.9
2023-10-04T12:50:56.265Z,26.9
2023-10-04T12:52:24.060Z,26.8
2023-10-04T12:53:49.017Z,27.9
2023-10-04T12:55:13.486Z,28.2
2023-10-04T12:56:41.226Z,28.5
2023-10-04T12:58:06.300Z,28.7
2023-10-04T12:59:34.398Z,28.9
2023-10-04T13:00:58.714Z,29.2
2023-10-04T13:02:23.596Z,29
2023-10-04T13:03:48.072Z,29.1
2023-10-04T13:05:05.362Z,29.2
2023-10-04T13:06:32.361Z,29.7
2023-10-04T13:07:56.544Z,29.3
2023-10-04T13:09:22.030Z,29.5
2023-10-04T13:10:41.566Z,28.7
2023-10-04T13:12:10.352Z,28.2
2023-10-04T13:13:35.581Z,28.8
2023-10-04T13:15:03.282Z,28.1
2023-10-04T13:16:28.361Z,28.1
2023-10-04T13:17:38.789Z,28.2
2023-10-04T13:19:07.013Z,28.4
2023-10-04T13:20:31.551Z,27.6
2023-10-04T13:21:49.249Z,28.1
2023-10-04T13:23:04.724Z,28.2
2023-10-04T13:24:24.260Z,28
2023-10-04T13:25:43.501Z,27.6
2023-10-04T13:27:08.408Z,27.2
2023-10-04T13:28:34.199Z,27.6
2023-10-04T13:29:58.501Z,27.3
2023-10-04T13:31:24.498Z,27.2
2023-10-04T13:32:33.323Z,27.1
2023-10-04T13:34:02.260Z,27.5
2023-10-04T13:35:37.235Z,27.5
2023-10-04T13:36:42.060Z,27.4
2023-10-04T13:38:06.299Z,26.8
2023-10-04T13:39:30.495Z,26.5
2023-10-04T13:40:55.537Z,26.6
2023-10-04T13:42:28.622Z,27.2
2023-10-04T13:43:49.182Z,27.9
2023-10-04T13:45:19.504Z,27.6
2023-10-04T13:46:50.079Z,27.2
2023-10-04T13:48:19.509Z,27
2023-10-04T13:49:44.029Z,26.7
2023-10-04T13:51:10.800Z,27
2023-10-04T13:52:39.380Z,26.2
2023-10-04T13:54:04.898Z,26.1
2023-10-04T13:55:35.534Z,26.3
2023-10-04T13:57:00.076Z,26.8
2023-10-04T13:58:26.623Z,26.8
2023-10-04T13:59:51.271Z,27.1
2023-10-04T14:01:22.289Z,27.5
2023-10-04T14:02:54.111Z,28.5
2023-10-04T14:04:18.083Z,28.2
2023-10-04T14:05:42.176Z,27.6
2023-10-04T14:07:09.144Z,27.3
2023-10-04T14:08:34.698Z,27.5
2023-10-04T14:09:51.532Z,27.9
2023-10-04T14:11:20.595Z,27.7
2023-10-04T14:12:46.134Z,27.7
2023-10-04T14:14:11.366Z,27.7
2023-10-04T14:15:37.192Z,27.5
2023-10-04T14:16:57.873Z,27
2023-10-04T14:18:10.448Z,27.2
2023-10-04T14:19:25.760Z,27.4
2023-10-04T14:20:49.913Z,27.2
2023-10-04T14:22:24.607Z,27.2
2023-10-04T14:23:50.323Z,27.2
2023-10-04T14:25:16.858Z,27.7
2023-10-04T14:26:41.588Z,27.6
2023-10-04T14:28:05.981Z,27.7
2023-10-04T14:29:12.279Z,28
2023-10-04T14:30:38.836Z,28.5
2023-10-04T14:32:04.091Z,28.6
2023-10-04T14:33:28.678Z,28.1
2023-10-04T14:34:52.200Z,27.9
2023-10-04T14:36:02.791Z,28.3
2023-10-04T14:37:17.539Z,28.4
2023-10-04T14:38:42.355Z,28.2
2023-10-04T14:40:07.349Z,28.7
2023-10-04T14:41:31.893Z,29
2023-10-04T14:42:37.546Z,29.1
2023-10-04T14:44:04.688Z,28.8
2023-10-04T14:45:28.970Z,28.8
2023-10-04T14:46:34.590Z,28.9
2023-10-04T14:48:04.389Z,28.5
2023-10-04T14:49:29.761Z,28.5
2023-10-04T14:50:43.097Z,28.4
2023-10-04T14:52:09.222Z,28.3
2023-10-04T14:53:33.421Z,27.9
2023-10-04T14:54:57.536Z,28.2
2023-10-04T14:56:24.765Z,28.6
2023-10-04T14:57:52.236Z,29.1
2023-10-04T14:59:18.887Z,29.4
2023-10-04T15:00:43.512Z,28.9
2023-10-04T15:02:09.052Z,28.5
2023-10-04T15:03:35.162Z,28
2023-10-04T15:04:44.213Z,28.1
2023-10-04T15:06:07.099Z,28.3
2023-10-04T15:07:31.348Z,28.3
2023-10-04T15:08:55.925Z,28.4
2023-10-04T15:10:21.233Z,28.6
2023-10-04T15:11:42.107Z,28.7
2023-10-04T15:13:06.896Z,29.4
2023-10-04T15:14:31.215Z,29.5
2023-10-04T15:17:18.552Z,29.2
2023-10-04T15:18:43.378Z,29
2023-10-04T15:20:08.720Z,28.8
2023-10-04T15:21:33.175Z,28.8
2023-10-04T15:23:00.706Z,28.9
2023-10-04T15:24:26.468Z,28.7
2023-10-04T15:25:51.150Z,28.7
2023-10-04T15:27:16.132Z,29.1
2023-10-04T15:28:28.537Z,28.9
2023-10-04T15:29:52.679Z,28.8
2023-10-04T15:31:17.109Z,28.9
2023-10-04T15:32:41.990Z,29.2
2023-10-04T15:34:06.549Z,29.5
2023-10-04T15:35:31.177Z,29.4
2023-10-04T15:36:56.364Z,29.4
2023-10-04T15:38:09.777Z,29.5
2023-10-04T15:39:39.499Z,29.7
2023-10-04T15:41:06.047Z,29.9
2023-10-04T15:42:30.361Z,29.8
2023-10-04T15:43:55.170Z,29.6
2023-10-04T15:45:05.670Z,29.6
2023-10-04T15:46:32.169Z,29.4
2023-10-04T15:47:56.341Z,29.1
2023-10-04T15:49:21.374Z,29.3
2023-10-04T15:50:46.409Z,29.3
2023-10-04T15:52:11.508Z,29.4
2023-10-04T15:53:36.606Z,29.7
2023-10-04T15:55:01.645Z,29.5
2023-10-04T15:56:27.755Z,29.5
2023-10-04T15:57:51.828Z,29.5
2023-10-04T15:59:16.089Z,29.6
2023-10-04T16:00:39.698Z,29.7
2023-10-04T16:02:05.471Z,29.1
2023-10-04T16:03:30.079Z,29.4
2023-10-04T16:04:58.404Z,29.5
2023-10-04T16:06:11.370Z,29.8
2023-10-04T16:07:21.553Z,29.8
2023-10-04T16:08:46.440Z,29.9
2023-10-04T16:10:11.095Z,29.9
2023-10-04T16:11:35.207Z,30
2023-10-04T16:12:59.436Z,30
2023-10-04T16:14:24.398Z,30.2
2023-10-04T16:15:48.464Z,30.4
2023-10-04T16:16:57.282Z,30.6
2023-10-04T16:18:21.382Z,31.2
2023-10-04T16:19:30.047Z,31.5
2023-10-04T16:20:57.004Z,31.6
2023-10-04T16:22:22.938Z,31.9
2023-10-04T16:23:48.004Z,32.8
2023-10-04T16:25:12.650Z,34.2
2023-10-04T16:26:18.349Z,34.5
2023-10-04T16:27:45.428Z,35.3
2023-10-04T16:28:51.259Z,35.4
2023-10-04T16:30:19.318Z,35.2
2023-10-04T16:31:26.007Z,35.1
2023-10-04T16:32:52.400Z,34.5
2023-10-04T16:34:25.792Z,34.1
2023-10-04T16:35:50.490Z,34
2023-10-04T16:37:14.700Z,34
2023-10-04T16:38:38.714Z,34.1
2023-10-04T16:40:03.294Z,33.9
2023-10-04T16:41:29.674Z,33.8
2023-10-04T16:42:53.942Z,33.9
2023-10-04T16:44:21.075Z,33.8
2023-10-04T16:45:45.314Z,34
2023-10-04T16:47:06.326Z,34
2023-10-04T16:48:15.769Z,33.9
2023-10-04T16:49:40.367Z,33.8
2023-10-04T16:51:04.609Z,33.9
2023-10-04T16:52:29.466Z,34
2023-10-04T16:53:54.570Z,34.1
2023-10-04T16:55:00.271Z,34.1
2023-10-04T16:56:26.415Z,34.2
2023-10-04T16:57:31.382Z,34.5
2023-10-04T16:58:57.578Z,34.8
2023-10-04T17:00:21.297Z,34.8
2023-10-04T17:01:46.040Z,34.9
2023-10-04T17:02:58.248Z,35.3
2023-10-04T17:04:22.728Z,35.4
2023-10-04T17:05:32.918Z,35.4
2023-10-04T17:06:56.567Z,35.7
2023-10-04T17:08:22.056Z,36
2023-10-04T17:09:46.514Z,35.6
2023-10-04T17:11:11.502Z,35.7
2023-10-04T17:12:36.015Z,35.6
2023-10-04T17:14:00.764Z,35.8
2023-10-04T17:15:24.813Z,35.9
2023-10-04T17:16:50.160Z,36
2023-10-04T17:18:14.232Z,36
2023-10-04T17:19:38.593Z,36
2023-10-04T17:20:53.596Z,36
2023-10-04T17:22:18.031Z,36.2
2023-10-04T17:23:42.071Z,36.2
2023-10-04T17:25:06.098Z,36.3
2023-10-04T17:26:30.333Z,37.2
2023-10-04T17:27:40.655Z,37.7
2023-10-04T17:29:05.056Z,38
2023-10-04T17:30:29.054Z,38.8
2023-10-04T17:31:51.150Z,40.1
2023-10-04T17:33:00.317Z,40.7
2023-10-04T17:34:24.094Z,41.2
2023-10-04T17:35:50.550Z,41.7
2023-10-04T17:37:18.271Z,41.9
2023-10-04T17:38:43.413Z,42
2023-10-04T17:40:09.815Z,42.1
2023-10-04T17:41:31.866Z,42.4
2023-10-04T17:42:59.104Z,42.4
2023-10-04T17:44:12.506Z,42.6
2023-10-04T17:45:36.639Z,42.4
2023-10-04T17:47:00.692Z,42.1
2023-10-04T17:48:25.156Z,42.1
2023-10-04T17:49:50.021Z,42.1
2023-10-04T17:51:16.032Z,42
2023-10-04T17:52:40.740Z,41.8
2023-10-04T17:53:51.909Z,41.8
2023-10-04T17:55:17.787Z,41.7
2023-10-04T17:56:43.920Z,41.8